Time;durP1;ratioP1;P1;durP2;ratioP2;P2;SDS_P1;SDS_P2;PMS_P1;PMS_P2;Temp;Humidity;BMP_temperature;BMP_pressure;BME280_temperature;BME280_humidity;BME280_pressure;Samples;Min_cycle;Max_cycle;Signal;HPM_P1;HPM_P2
2021/08/16 00:01:55;;;;;;;;;;;;;;;;;;5117332;27;1208;-49
2021/08/16 00:04:20;;;;;;;;;;;;;;;;;;5117196;27;1318;-50
2021/08/16 00:06:46;;;;;;;;;;;;;;;;;;5116600;28;1552;-50
2021/08/16 00:09:11;;;;;;;;;;;;;;;;;;5115297;28;1589;-49
2021/08/16 00:11:36;;;;;;;;;;;;;;;;;;5119937;28;1484;-49
2021/08/16 00:14:02;;;;;;;;;;;;;;;;;;5115040;28;1964;-49
2021/08/16 00:16:27;;;;;;;;;;;;;;;;;;5115860;27;1658;-50
2021/08/16 00:18:52;;;;;;;;;;;;;;;;;;5118064;28;1245;-50
2021/08/16 00:21:17;;;;;;;;;;;;;;;;;;5115297;28;1216;-50
2021/08/16 00:23:42;;;;;;;;;;;;;;;;;;5116780;28;1159;-49
2021/08/16 00:26:08;;;;;;;;;;;;;;;;;;5117466;28;1598;-50
2021/08/16 00:28:33;;;;;;;;;;;;;;;;;;5115186;28;1698;-50
2021/08/16 00:30:58;;;;;;;;;;;;;;;;;;5116535;27;1078;-50
2021/08/16 00:33:23;;;;;;;;;;;;;;;;;;5118255;27;1972;-50
2021/08/16 00:35:48;;;;;;;;;;;;;;;;;;5116809;27;1166;-50
2021/08/16 00:38:13;;;;;;;;;;;;;;;;;;5116432;28;1565;-47
2021/08/16 00:40:39;;;;;;;;;;;;;;;;;;5119934;28;1048;-50
2021/08/16 00:43:04;;;;;;;;;;;;;;;;;;5115047;28;1519;-50
2021/08/16 00:45:29;;;;;;;;;;;;;;;;;;5116976;28;1213;-50
2021/08/16 00:47:54;;;;;;;;;;;;;;;;;;5119152;28;1161;-50
2021/08/16 00:50:19;;;;;;;;;;;;;;;;;;5115391;27;1546;-49
2021/08/16 00:52:44;;;;;;;;;;;;;;;;;;5116341;27;1177;-49
2021/08/16 00:55:10;;;;;;;;;;;;;;;;;;5117247;27;1962;-49
2021/08/16 00:57:35;;;;;;;;;;;;;;;;;;5118138;28;1601;-50
2021/08/16 01:00:02;;;;;;;;;;;;;;;;;;5111799;27;1403;-50
2021/08/16 01:02:27;;;;;;;;;;;;;;;;;;5112074;27;1593;-49
2021/08/16 01:04:52;;;;;;;;;;;;;;;;;;5117114;27;1115;-50
2021/08/16 01:07:17;;;;;;;;;;;;;;;;;;5115999;27;1390;-50
2021/08/16 01:09:43;;;;;;;;;;;;;;;;;;5119910;27;1590;-50
2021/08/16 01:12:08;;;;;;;;;;;;;;;;;;5117727;27;1633;-49
2021/08/16 01:14:33;;;;;;;;;;;;;;;;;;5121776;27;1906;-51
2021/08/16 01:16:58;;;;;;;;;;;;;;;;;;5119334;27;1356;-49
2021/08/16 01:19:24;;;;;;;;;;;;;;;;;;5121177;27;1368;-49
2021/08/16 01:21:49;;;;;;;;;;;;;;;;;;5113691;27;1840;-48
2021/08/16 01:24:15;;;;;;;;;;;;;;;;;;5122122;27;1222;-50
2021/08/16 01:26:40;;;;;;;;;;;;;;;;;;5122207;27;1360;-50
2021/08/16 01:29:13;;;;;;;;;;;;;;;;;;5119434;27;1768;-50
2021/08/16 01:31:38;;;;;;;;;;;;;;;;;;5121897;27;1186;-49
2021/08/16 01:34:04;;;;;;;;;;;;;;;;;;5122141;27;1914;-50
2021/08/16 01:36:29;;;;;;;;;;;;;;;;;;5119642;27;1616;-50
2021/08/16 01:38:54;;;;;;;;;;;;;;;;;;5122317;27;1295;-49
2021/08/16 01:41:19;;;;;;;;;;;;;;;;;;5122767;27;1182;-50
2021/08/16 01:43:44;;;;;;;;;;;;;;;;;;5117625;27;1653;-50
2021/08/16 01:46:09;;;;;;;;;;;;;;;;;;5118780;27;1310;-50
2021/08/16 01:48:35;;;;;;;;;;;;;;;;;;5118768;27;1376;-51
2021/08/16 01:51:00;;;;;;;;;;;;;;;;;;5121624;27;1335;-50
2021/08/16 01:53:25;;;;;;;;;;;;;;;;;;5118784;27;1901;-50
2021/08/16 01:55:50;;;;;;;;;;;;;;;;;;5119025;27;1178;-49
2021/08/16 01:58:15;;;;;;;;;;;;;;;;;;5117174;27;1700;-50
2021/08/16 02:00:41;;;;;;;;;;;;;;;;;;5117314;27;1602;-50
2021/08/16 02:03:06;;;;;;;;;;;;;;;;;;5117773;27;1475;-50
2021/08/16 02:05:31;;;;;;;;;;;;;;;;;;5114943;27;1664;-50
2021/08/16 02:07:57;;;;;;;;;;;;;;;;;;5117686;27;1323;-50
2021/08/16 02:10:23;;;;;;;;;;;;;;;;;;5121249;27;1143;-51
2021/08/16 02:12:48;;;;;;;;;;;;;;;;;;5137687;22;1979;-86
2021/08/16 02:15:13;;;;;;;;;;;;;;;;;;5081221;28;1977;-86
2021/08/16 02:17:38;;;;;;;;;;;;;;;;;;5082623;28;1247;-85
2021/08/16 02:20:04;;;;;;;;;;;;;;;;;;5066658;28;1543;-86
2021/08/16 02:22:29;;;;;;;;;;;;;;;;;;5045670;28;1889;-85
2021/08/16 02:24:54;;;;;;;;;;;;;;;;;;5061327;28;1244;-86
2021/08/16 02:27:19;;;;;;;;;;;;;;;;;;5059989;28;1598;-85
2021/08/16 02:29:45;;;;;;;;;;;;;;;;;;5061425;28;1522;-86
2021/08/16 02:32:10;;;;;;;;;;;;;;;;;;5060684;28;1196;-86
2021/08/16 02:34:35;;;;;;;;;;;;;;;;;;5060891;28;1921;-86
2021/08/16 02:37:00;;;;;;;;;;;;;;;;;;5060661;28;1529;-85
2021/08/16 02:39:25;;;;;;;;;;;;;;;;;;5062434;28;1242;-86
2021/08/16 02:41:51;;;;;;;;;;;;;;;;;;5060124;28;1567;-86
2021/08/16 02:44:16;;;;;;;;;;;;;;;;;;5064680;28;1227;-86
2021/08/16 02:46:41;;;;;;;;;;;;;;;;;;5059948;28;1168;-86
2021/08/16 02:49:06;;;;;;;;;;;;;;;;;;5063111;28;1661;-86
2021/08/16 02:51:31;;;;;;;;;;;;;;;;;;5061329;28;1165;-86
2021/08/16 02:53:57;;;;;;;;;;;;;;;;;;5062449;28;1914;-85
2021/08/16 02:56:22;;;;;;;;;;;;;;;;;;5062272;28;1203;-85
2021/08/16 02:58:47;;;;;;;;;;;;;;;;;;5059951;28;1521;-85
2021/08/16 03:01:12;;;;;;;;;;;;;;;;;;5060290;28;1097;-86
2021/08/16 03:03:37;;;;;;;;;;;;;;;;;;5060486;28;1244;-86
2021/08/16 03:06:03;;;;;;;;;;;;;;;;;;5042847;28;1690;-86
2021/08/16 03:08:28;;;;;;;;;;;;;;;;;;5060983;28;1184;-85
2021/08/16 03:10:53;;;;;;;;;;;;;;;;;;5059621;28;1306;-86
2021/08/16 03:13:18;;;;;;;;;;;;;;;;;;5064789;28;1566;-86
2021/08/16 03:15:43;;;;;;;;;;;;;;;;;;5064183;28;1910;-86
2021/08/16 03:18:09;;;;;;;;;;;;;;;;;;5062486;28;1453;-86
2021/08/16 03:20:35;;;;;;;;;;;;;;;;;;5061678;28;1460;-86
2021/08/16 03:23:00;;;;;;;;;;;;;;;;;;5063165;28;1208;-86
2021/08/16 03:25:25;;;;;;;;;;;;;;;;;;5058503;28;1231;-86
2021/08/16 03:27:50;;;;;;;;;;;;;;;;;;5063479;28;1523;-85
2021/08/16 03:30:16;;;;;;;;;;;;;;;;;;5087648;28;1239;-85
2021/08/16 03:32:41;;;;;;;;;;;;;;;;;;5084621;28;1389;-85
2021/08/16 03:35:07;;;;;;;;;;;;;;;;;;5072566;28;1882;-86
2021/08/16 03:37:34;;;;;;;;;;;;;;;;;;5045800;28;1195;-86
2021/08/16 03:39:59;;;;;;;;;;;;;;;;;;5058542;28;1254;-86
2021/08/16 03:42:25;;;;;;;;;;;;;;;;;;5059682;28;1586;-86
2021/08/16 03:44:50;;;;;;;;;;;;;;;;;;5064721;28;1608;-86
2021/08/16 03:47:15;;;;;;;;;;;;;;;;;;5040778;28;1166;-86
2021/08/16 03:49:40;;;;;;;;;;;;;;;;;;5061005;28;1313;-86
2021/08/16 03:52:05;;;;;;;;;;;;;;;;;;5058410;28;1617;-86
2021/08/16 03:54:31;;;;;;;;;;;;;;;;;;5062958;28;1902;-86
2021/08/16 03:56:56;;;;;;;;;;;;;;;;;;5058798;28;1614;-86
2021/08/16 03:59:21;;;;;;;;;;;;;;;;;;5058978;28;1329;-86
2021/08/16 04:01:46;;;;;;;;;;;;;;;;;;5062405;28;958;-86
2021/08/16 04:04:11;;;;;;;;;;;;;;;;;;5059444;28;1183;-85
2021/08/16 04:06:37;;;;;;;;;;;;;;;;;;5059442;28;1653;-86
2021/08/16 04:09:02;;;;;;;;;;;;;;;;;;5062821;28;1363;-86
2021/08/16 04:11:27;;;;;;;;;;;;;;;;;;5060030;28;1208;-86
2021/08/16 04:13:52;;;;;;;;;;;;;;;;;;5060267;28;1913;-86
2021/08/16 04:16:17;;;;;;;;;;;;;;;;;;5061387;28;1191;-86
2021/08/16 04:18:43;;;;;;;;;;;;;;;;;;5059633;28;1339;-86
2021/08/16 04:21:08;;;;;;;;;;;;;;;;;;5058552;28;1641;-86
2021/08/16 04:23:33;;;;;;;;;;;;;;;;;;5058768;28;1188;-86
2021/08/16 04:25:58;;;;;;;;;;;;;;;;;;5059881;28;1430;-86
2021/08/16 04:28:23;;;;;;;;;;;;;;;;;;5059947;28;1653;-86
2021/08/16 04:30:49;;;;;;;;;;;;;;;;;;5059453;28;1205;-85
2021/08/16 04:33:14;;;;;;;;;;;;;;;;;;5044514;28;1462;-86
2021/08/16 04:35:39;;;;;;;;;;;;;;;;;;5063234;28;1965;-86
2021/08/16 04:38:04;;;;;;;;;;;;;;;;;;5044307;28;1771;-86
2021/08/16 04:40:30;;;;;;;;;;;;;;;;;;5063301;28;1369;-86
2021/08/16 04:42:55;;;;;;;;;;;;;;;;;;5066344;28;1625;-86
2021/08/16 04:45:20;;;;;;;;;;;;;;;;;;5064071;28;1335;-86
2021/08/16 04:47:45;;;;;;;;;;;;;;;;;;5062991;28;1125;-86
2021/08/16 04:50:11;;;;;;;;;;;;;;;;;;5045091;28;1385;-86
2021/08/16 04:52:36;;;;;;;;;;;;;;;;;;5062176;28;1544;-86
2021/08/16 04:55:01;;;;;;;;;;;;;;;;;;5062983;28;1909;-86
2021/08/16 04:57:30;;;;;;;;;;;;;;;;;;5065030;28;1567;-85
2021/08/16 04:59:55;;;;;;;;;;;;;;;;;;5063089;28;1266;-86
2021/08/16 05:02:20;;;;;;;;;;;;;;;;;;5064655;28;1175;-86
2021/08/16 05:04:49;;;;;;;;;;;;;;;;;;5062589;28;1161;-86
2021/08/16 05:07:14;;;;;;;;;;;;;;;;;;5063627;28;1637;-86
2021/08/16 05:09:39;;;;;;;;;;;;;;;;;;5064297;28;1367;-86
2021/08/16 05:12:05;;;;;;;;;;;;;;;;;;5045626;28;1526;-86
2021/08/16 05:14:30;;;;;;;;;;;;;;;;;;5063132;28;1969;-86
2021/08/16 05:16:55;;;;;;;;;;;;;;;;;;5062655;28;1503;-86
2021/08/16 05:19:20;;;;;;;;;;;;;;;;;;5061538;28;1221;-86
2021/08/16 05:21:45;;;;;;;;;;;;;;;;;;5046774;28;1267;-86
2021/08/16 05:24:10;;;;;;;;;;;;;;;;;;5044820;28;1080;-86
2021/08/16 05:26:36;;;;;;;;;;;;;;;;;;5062375;28;1535;-86
2021/08/16 05:29:01;;;;;;;;;;;;;;;;;;5061327;28;1567;-86
2021/08/16 05:31:26;;;;;;;;;;;;;;;;;;5062225;28;1230;-87
2021/08/16 05:33:51;;;;;;;;;;;;;;;;;;5062414;28;1902;-86
2021/08/16 05:36:17;;;;;;;;;;;;;;;;;;5062433;28;1579;-86
2021/08/16 05:38:43;;;;;;;;;;;;;;;;;;5062253;28;1296;-86
2021/08/16 05:41:08;;;;;;;;;;;;;;;;;;5060715;28;1061;-86
2021/08/16 05:43:33;;;;;;;;;;;;;;;;;;5062882;28;1614;-86
2021/08/16 05:45:59;;;;;;;;;;;;;;;;;;5063565;28;1013;-86
2021/08/16 05:48:24;;;;;;;;;;;;;;;;;;5062474;28;1165;-86
2021/08/16 05:50:49;;;;;;;;;;;;;;;;;;5061926;28;1578;-86
2021/08/16 05:53:14;;;;;;;;;;;;;;;;;;5060891;28;1153;-86
2021/08/16 05:55:39;;;;;;;;;;;;;;;;;;5062417;28;1905;-86
2021/08/16 05:58:04;;;;;;;;;;;;;;;;;;5062953;28;1710;-86
2021/08/16 06:00:30;;;;;;;;;;;;;;;;;;5065868;28;1351;-86
2021/08/16 06:02:55;;;;;;;;;;;;;;;;;;5061442;28;1093;-86
2021/08/16 06:05:20;;;;;;;;;;;;;;;;;;5062630;28;1546;-86
2021/08/16 06:07:45;;;;;;;;;;;;;;;;;;5062758;28;1232;-86
2021/08/16 06:10:11;;;;;;;;;;;;;;;;;;5058405;28;1605;-86
2021/08/16 06:12:36;;;;;;;;;;;;;;;;;;5060470;28;1554;-86
2021/08/16 06:15:01;;;;;;;;;;;;;;;;;;5061416;28;1979;-86
2021/08/16 06:17:29;;;;;;;;;;;;;;;;;;5062376;28;1475;-86
2021/08/16 06:19:54;;;;;;;;;;;;;;;;;;5044183;28;1345;-85
2021/08/16 06:22:19;;;;;;;;;;;;;;;;;;5061323;28;1646;-85
2021/08/16 06:24:44;;;;;;;;;;;;;;;;;;5060882;28;1156;-85
2021/08/16 06:27:09;;;;;;;;;;;;;;;;;;5060573;28;1622;-85
2021/08/16 06:29:35;;;;;;;;;;;;;;;;;;5063970;28;1431;-85
2021/08/16 06:32:00;;;;;;;;;;;;;;;;;;5061476;28;1097;-85
2021/08/16 06:34:25;;;;;;;;;;;;;;;;;;5042688;28;1955;-85
2021/08/16 06:36:55;;;;;;;;;;;;;;;;;;5042136;28;1580;-84
2021/08/16 06:39:21;;;;;;;;;;;;;;;;;;5061010;28;1507;-84
2021/08/16 06:41:50;;;;;;;;;;;;;;;;;;5026124;28;1430;-84
2021/08/16 06:44:19;;;;;;;;;;;;;;;;;;5048108;28;1555;-84
2021/08/16 06:46:45;;;;;;;;;;;;;;;;;;5060499;28;1164;-84
2021/08/16 06:49:10;;;;;;;;;;;;;;;;;;5059262;28;1435;-84
2021/08/16 06:51:35;;;;;;;;;;;;;;;;;;5068300;28;1638;-84
2021/08/16 06:54:00;;;;;;;;;;;;;;;;;;5059516;28;1909;-84
2021/08/16 06:56:25;;;;;;;;;;;;;;;;;;5058552;28;1125;-84
2021/08/16 06:58:51;;;;;;;;;;;;;;;;;;5059083;28;1578;-84
2021/08/16 07:01:22;;;;;;;;;;;;;;;;;;5059760;28;1160;-84
2021/08/16 07:03:47;;;;;;;;;;;;;;;;;;5059955;28;1514;-84
2021/08/16 07:06:13;;;;;;;;;;;;;;;;;;5062467;28;1175;-84
2021/08/16 07:08:38;;;;;;;;;;;;;;;;;;5052323;28;1345;-84
2021/08/16 07:11:03;;;;;;;;;;;;;;;;;;5065557;28;1267;-84
2021/08/16 07:13:28;;;;;;;;;;;;;;;;;;5065347;28;1590;-84
2021/08/16 07:15:54;;;;;;;;;;;;;;;;;;5067275;28;1894;-84
2021/08/16 07:18:19;;;;;;;;;;;;;;;;;;5067371;28;1093;-85
2021/08/16 07:20:44;;;;;;;;;;;;;;;;;;5049244;28;1607;-84
2021/08/16 07:23:10;;;;;;;;;;;;;;;;;;5049638;28;1228;-84
2021/08/16 07:25:35;;;;;;;;;;;;;;;;;;5047906;28;1298;-84
2021/08/16 07:28:00;;;;;;;;;;;;;;;;;;5063956;28;1542;-84
2021/08/16 07:30:26;;;;;;;;;;;;;;;;;;5064062;28;1250;-85
2021/08/16 07:32:51;;;;;;;;;;;;;;;;;;5064482;28;1350;-85
2021/08/16 07:35:16;;;;;;;;;;;;;;;;;;5047368;28;2065;-85
2021/08/16 07:37:41;;;;;;;;;;;;;;;;;;5048046;28;1145;-85
2021/08/16 07:40:07;;;;;;;;;;;;;;;;;;5044074;28;1556;-83
2021/08/16 07:42:32;;;;;;;;;;;;;;;;;;5063516;28;1559;-83
2021/08/16 07:44:57;;;;;;;;;;;;;;;;;;5067103;28;1141;-83
2021/08/16 07:47:22;;;;;;;;;;;;;;;;;;5064308;28;1227;-84
2021/08/16 07:49:47;;;;;;;;;;;;;;;;;;5034295;28;1260;-83
2021/08/16 07:52:13;;;;;;;;;;;;;;;;;;5062835;28;1538;-86
2021/08/16 07:54:38;;;;;;;;;;;;;;;;;;5065187;28;1944;-85
2021/08/16 07:57:03;;;;;;;;;;;;;;;;;;5059194;28;1640;-86
2021/08/16 07:59:29;;;;;;;;;;;;;;;;;;5040845;28;1644;-85
2021/08/16 08:01:54;;;;;;;;;;;;;;;;;;5065216;28;1129;-84
2021/08/16 08:04:19;;;;;;;;;;;;;;;;;;5047121;28;1667;-84
2021/08/16 08:06:45;;;;;;;;;;;;;;;;;;5066471;28;1180;-84
2021/08/16 08:09:10;;;;;;;;;;;;;;;;;;5062293;28;1585;-85
2021/08/16 08:11:35;;;;;;;;;;;;;;;;;;5051932;28;1333;-84
2021/08/16 08:14:00;;;;;;;;;;;;;;;;;;5069427;28;1918;-84
2021/08/16 08:16:25;;;;;;;;;;;;;;;;;;5049186;28;1184;-84
2021/08/16 08:18:51;;;;;;;;;;;;;;;;;;5044279;28;1692;-84
2021/08/16 08:21:16;;;;;;;;;;;;;;;;;;5048806;28;1566;-83
2021/08/16 08:23:41;;;;;;;;;;;;;;;;;;5048050;28;2113;-84
2021/08/16 08:26:07;;;;;;;;;;;;;;;;;;5047402;28;1564;-84
2021/08/16 08:28:32;;;;;;;;;;;;;;;;;;5066989;28;1539;-84
2021/08/16 08:30:57;;;;;;;;;;;;;;;;;;5063869;28;1322;-84
2021/08/16 08:33:22;;;;;;;;;;;;;;;;;;5037672;28;1603;-85
2021/08/16 08:35:47;;;;;;;;;;;;;;;;;;5065903;28;1948;-84
2021/08/16 08:38:13;;;;;;;;;;;;;;;;;;5067687;28;1406;-84
2021/08/16 08:40:38;;;;;;;;;;;;;;;;;;5046230;28;1636;-83
2021/08/16 08:43:04;;;;;;;;;;;;;;;;;;5067198;28;1602;-84
2021/08/16 08:45:29;;;;;;;;;;;;;;;;;;5067208;28;1334;-84
2021/08/16 08:47:54;;;;;;;;;;;;;;;;;;5069517;28;1244;-84
2021/08/16 08:50:20;;;;;;;;;;;;;;;;;;5069247;28;1638;-84
2021/08/16 08:52:45;;;;;;;;;;;;;;;;;;5047103;28;1227;-85
2021/08/16 08:55:10;;;;;;;;;;;;;;;;;;5063745;28;1898;-85
2021/08/16 08:57:36;;;;;;;;;;;;;;;;;;5049732;28;1626;-84
2021/08/16 09:00:01;;;;;;;;;;;;;;;;;;5068099;28;1311;-84
2021/08/16 09:02:27;;;;;;;;;;;;;;;;;;5069510;28;1526;-85
2021/08/16 09:04:52;;;;;;;;;;;;;;;;;;5051222;28;1235;-84
2021/08/16 09:07:28;;;;;;;;;;;;;;;;;;5046465;28;1133;-84
2021/08/16 09:09:54;;;;;;;;;;;;;;;;;;5066944;28;1548;-84
2021/08/16 09:12:35;;;;;;;;;;;;;;;;;;5047490;28;1549;-85
2021/08/16 09:15:00;;;;;;;;;;;;;;;;;;5050194;28;1965;-84
2021/08/16 09:17:26;;;;;;;;;;;;;;;;;;5064711;28;1745;-83
2021/08/16 09:19:51;;;;;;;;;;;;;;;;;;5066398;28;1333;-84
2021/08/16 09:22:22;;;;;;;;;;;;;;;;;;5031658;28;1619;-84
2021/08/16 09:24:54;;;;;;;;;;;;;;;;;;5048384;28;1603;-84
2021/08/16 09:27:19;;;;;;;;;;;;;;;;;;5032983;28;1588;-84
2021/08/16 09:29:48;;;;;;;;;;;;;;;;;;5069586;28;1371;-84
2021/08/16 09:32:17;;;;;;;;;;;;;;;;;;5053579;28;1204;-86
2021/08/16 09:34:49;;;;;;;;;;;;;;;;;;5071431;28;1967;-84
2021/08/16 09:37:24;;;;;;;;;;;;;;;;;;5050582;28;1645;-84
2021/08/16 09:39:59;;;;;;;;;;;;;;;;;;5068552;28;1527;-84
2021/08/16 09:42:24;;;;;;;;;;;;;;;;;;5069808;28;1581;-83
2021/08/16 09:44:49;;;;;;;;;;;;;;;;;;5070743;28;1545;-84
2021/08/16 09:47:14;;;;;;;;;;;;;;;;;;5054037;28;1587;-84
2021/08/16 09:49:40;;;;;;;;;;;;;;;;;;5050434;28;1554;-84
2021/08/16 09:52:06;;;;;;;;;;;;;;;;;;5070070;28;1081;-85
2021/08/16 09:54:32;;;;;;;;;;;;;;;;;;5069158;28;1922;-84
2021/08/16 09:56:58;;;;;;;;;;;;;;;;;;5031596;28;1574;-85
2021/08/16 09:59:24;;;;;;;;;;;;;;;;;;5065415;28;1282;-85
2021/08/16 10:01:49;;;;;;;;;;;;;;;;;;5066658;28;1361;-83
2021/08/16 10:04:14;;;;;;;;;;;;;;;;;;5067580;28;1702;-84
2021/08/16 10:06:39;;;;;;;;;;;;;;;;;;5065078;28;1215;-84
2021/08/16 10:09:05;;;;;;;;;;;;;;;;;;5043733;28;1671;-84
2021/08/16 10:11:30;;;;;;;;;;;;;;;;;;5064211;28;1089;-84
2021/08/16 10:13:56;;;;;;;;;;;;;;;;;;5047825;28;1979;-84
2021/08/16 10:16:29;;;;;;;;;;;;;;;;;;5050453;28;1256;-83
2021/08/16 10:19:01;;;;;;;;;;;;;;;;;;5049155;28;1220;-84
2021/08/16 10:21:26;;;;;;;;;;;;;;;;;;5050224;28;1641;-84
2021/08/16 10:23:52;;;;;;;;;;;;;;;;;;5069972;28;1592;-84
2021/08/16 10:26:25;;;;;;;;;;;;;;;;;;5065296;28;1081;-84
2021/08/16 10:28:57;;;;;;;;;;;;;;;;;;5048772;28;1500;-84
2021/08/16 10:31:33;;;;;;;;;;;;;;;;;;5015298;28;1094;-84
2021/08/16 10:33:58;;;;;;;;;;;;;;;;;;5045094;28;1969;-84
2021/08/16 10:36:24;;;;;;;;;;;;;;;;;;5045908;28;1594;-85
2021/08/16 10:38:49;;;;;;;;;;;;;;;;;;5047318;28;1690;-84
2021/08/16 10:41:24;;;;;;;;;;;;;;;;;;5046758;28;1212;-85
2021/08/16 10:43:50;;;;;;;;;;;;;;;;;;5044123;28;1590;-85
2021/08/16 10:46:21;;;;;;;;;;;;;;;;;;5047337;28;1270;-84
2021/08/16 10:48:46;;;;;;;;;;;;;;;;;;5048381;28;1324;-87
2021/08/16 10:51:11;;;;;;;;;;;;;;;;;;5047717;28;1487;-85
2021/08/16 10:53:45;;;;;;;;;;;;;;;;;;5066472;28;1196;-85
2021/08/16 10:56:17;;;;;;;;;;;;;;;;;;5068493;28;1157;-84
2021/08/16 10:58:42;;;;;;;;;;;;;;;;;;5049082;28;1553;-85
2021/08/16 11:01:07;;;;;;;;;;;;;;;;;;5063249;28;962;-85
2021/08/16 11:03:32;;;;;;;;;;;;;;;;;;5048447;28;1331;-84
2021/08/16 11:05:58;;;;;;;;;;;;;;;;;;5047322;28;1569;-85
2021/08/16 11:08:28;;;;;;;;;;;;;;;;;;5053127;28;1470;-84
2021/08/16 11:10:53;;;;;;;;;;;;;;;;;;5048062;28;1348;-84
2021/08/16 11:13:19;;;;;;;;;;;;;;;;;;5048597;28;1552;-85
2021/08/16 11:15:46;;;;;;;;;;;;;;;;;;5028728;28;1963;-85
2021/08/16 11:18:20;;;;;;;;;;;;;;;;;;5046861;28;1103;-84
2021/08/16 11:20:46;;;;;;;;;;;;;;;;;;5032696;28;1613;-85
2021/08/16 11:23:11;;;;;;;;;;;;;;;;;;5067471;28;1109;-85
2021/08/16 11:25:37;;;;;;;;;;;;;;;;;;5045799;28;1340;-85
2021/08/16 11:28:02;;;;;;;;;;;;;;;;;;5029872;28;1593;-85
2021/08/16 11:30:29;;;;;;;;;;;;;;;;;;5044465;28;1414;-85
2021/08/16 11:32:55;;;;;;;;;;;;;;;;;;5063764;28;1387;-85
2021/08/16 11:35:20;;;;;;;;;;;;;;;;;;5041985;28;1970;-85
2021/08/16 11:37:48;;;;;;;;;;;;;;;;;;5062413;28;1791;-85
2021/08/16 11:40:13;;;;;;;;;;;;;;;;;;5063750;28;1246;-85
2021/08/16 11:42:39;;;;;;;;;;;;;;;;;;5064813;28;1617;-85
2021/08/16 11:45:05;;;;;;;;;;;;;;;;;;5062777;28;1517;-86
2021/08/16 11:47:37;;;;;;;;;;;;;;;;;;5062583;28;1120;-86
2021/08/16 11:50:04;;;;;;;;;;;;;;;;;;5065635;28;1272;-85
2021/08/16 11:52:29;;;;;;;;;;;;;;;;;;5066643;28;1125;-85
2021/08/16 11:54:54;;;;;;;;;;;;;;;;;;5064424;28;1906;-85
2021/08/16 11:57:20;;;;;;;;;;;;;;;;;;5064292;28;1555;-86
2021/08/16 11:59:49;;;;;;;;;;;;;;;;;;5068263;28;1392;-86
2021/08/16 12:02:14;;;;;;;;;;;;;;;;;;5062048;28;1486;-85
2021/08/16 12:04:39;;;;;;;;;;;;;;;;;;5046627;28;1212;-85
2021/08/16 12:07:04;;;;;;;;;;;;;;;;;;5046122;28;1548;-85
2021/08/16 12:09:33;;;;;;;;;;;;;;;;;;5061907;28;1283;-85
2021/08/16 12:11:58;;;;;;;;;;;;;;;;;;5030740;28;1532;-85
2021/08/16 12:14:30;;;;;;;;;;;;;;;;;;5067965;28;1977;-85
2021/08/16 12:16:55;;;;;;;;;;;;;;;;;;5067533;28;1466;-86
2021/08/16 12:19:20;;;;;;;;;;;;;;;;;;5048617;28;1379;-86
2021/08/16 12:21:45;;;;;;;;;;;;;;;;;;5063173;28;1165;-85
2021/08/16 12:24:11;;;;;;;;;;;;;;;;;;5047268;28;1395;-85
2021/08/16 12:26:36;;;;;;;;;;;;;;;;;;5064749;28;1633;-85
2021/08/16 12:29:02;;;;;;;;;;;;;;;;;;5064916;28;1621;-85
2021/08/16 12:31:29;;;;;;;;;;;;;;;;;;5063085;28;1137;-85
2021/08/16 12:33:55;;;;;;;;;;;;;;;;;;5043815;28;1901;-85
2021/08/16 12:36:21;;;;;;;;;;;;;;;;;;5065334;28;1215;-85
2021/08/16 12:38:52;;;;;;;;;;;;;;;;;;5063736;28;1981;-85
2021/08/16 12:41:21;;;;;;;;;;;;;;;;;;5044645;28;1124;-85
2021/08/16 12:43:46;;;;;;;;;;;;;;;;;;5067976;28;1591;-85
2021/08/16 12:46:11;;;;;;;;;;;;;;;;;;5063096;28;1144;-85
2021/08/16 12:48:40;;;;;;;;;;;;;;;;;;5044286;28;1559;-85
2021/08/16 12:51:05;;;;;;;;;;;;;;;;;;5061823;28;1100;-85
2021/08/16 12:53:30;;;;;;;;;;;;;;;;;;5063565;28;1199;-85
2021/08/16 12:55:57;;;;;;;;;;;;;;;;;;5064393;28;1914;-85
2021/08/16 12:58:22;;;;;;;;;;;;;;;;;;5049837;28;1579;-85
2021/08/16 13:00:47;;;;;;;;;;;;;;;;;;5067370;28;1446;-86
2021/08/16 13:03:13;;;;;;;;;;;;;;;;;;5068542;28;1145;-85
2021/08/16 13:05:38;;;;;;;;;;;;;;;;;;5065778;28;1284;-84
2021/08/16 13:08:03;;;;;;;;;;;;;;;;;;5068595;28;1072;-86
2021/08/16 13:10:28;;;;;;;;;;;;;;;;;;5065887;28;1522;-85
2021/08/16 13:12:53;;;;;;;;;;;;;;;;;;5033312;28;1181;-86
2021/08/16 13:15:20;;;;;;;;;;;;;;;;;;5073290;28;1905;-85
2021/08/16 13:17:46;;;;;;;;;;;;;;;;;;5064904;28;1326;-85
2021/08/16 13:20:11;;;;;;;;;;;;;;;;;;5065731;28;1390;-85
2021/08/16 13:22:36;;;;;;;;;;;;;;;;;;5067555;28;1598;-85
2021/08/16 13:25:01;;;;;;;;;;;;;;;;;;5069105;28;1275;-85
2021/08/16 13:27:27;;;;;;;;;;;;;;;;;;5067686;28;1641;-85
2021/08/16 13:29:52;;;;;;;;;;;;;;;;;;5067068;28;1609;-84
2021/08/16 13:32:17;;;;;;;;;;;;;;;;;;5067738;28;1276;-86
2021/08/16 13:34:42;;;;;;;;;;;;;;;;;;5066151;28;1914;-85
2021/08/16 13:37:13;;;;;;;;;;;;;;;;;;5051318;28;1558;-85
2021/08/16 13:39:38;;;;;;;;;;;;;;;;;;5065833;28;1302;-85
2021/08/16 13:42:03;;;;;;;;;;;;;;;;;;5067503;28;1537;-85
2021/08/16 13:44:29;;;;;;;;;;;;;;;;;;5069360;28;1042;-86
2021/08/16 13:46:54;;;;;;;;;;;;;;;;;;5070762;28;1226;-86
2021/08/16 13:49:19;;;;;;;;;;;;;;;;;;5063690;28;1278;-85
2021/08/16 13:51:44;;;;;;;;;;;;;;;;;;5069257;28;1258;-86
2021/08/16 13:54:10;;;;;;;;;;;;;;;;;;5064991;28;1963;-85
2021/08/16 13:56:35;;;;;;;;;;;;;;;;;;5067948;28;1116;-86
2021/08/16 13:59:00;;;;;;;;;;;;;;;;;;5069912;28;1369;-86
2021/08/16 14:01:25;;;;;;;;;;;;;;;;;;5082768;23;3655;-53
2021/08/16 14:03:50;;;;;;;;;;;;;;;;;;5082194;28;1257;-51
2021/08/16 14:06:16;;;;;;;;;;;;;;;;;;5083864;28;1528;-52
2021/08/16 14:08:41;;;;;;;;;;;;;;;;;;5080553;28;1590;-52
2021/08/16 14:11:06;;;;;;;;;;;;;;;;;;5085816;28;1546;-52
2021/08/16 14:13:32;;;;;;;;;;;;;;;;;;5081331;28;1613;-52
2021/08/16 14:15:57;;;;;;;;;;;;;;;;;;5082431;28;1963;-52
2021/08/16 14:18:22;;;;;;;;;;;;;;;;;;5084044;28;1294;-53
2021/08/16 14:20:48;;;;;;;;;;;;;;;;;;5084954;28;1265;-52
2021/08/16 14:23:16;;;;;;;;;;;;;;;;;;5083055;28;1796;-51
2021/08/16 14:25:41;;;;;;;;;;;;;;;;;;5084061;28;1194;-53
2021/08/16 14:28:06;;;;;;;;;;;;;;;;;;5081238;28;1578;-53
2021/08/16 14:30:32;;;;;;;;;;;;;;;;;;5085208;28;1706;-52
2021/08/16 14:32:57;;;;;;;;;;;;;;;;;;5084679;28;1410;-52
2021/08/16 14:35:22;;;;;;;;;;;;;;;;;;5085484;28;1957;-52
2021/08/16 14:37:47;;;;;;;;;;;;;;;;;;5082921;28;1233;-52
2021/08/16 14:40:13;;;;;;;;;;;;;;;;;;5080662;28;1527;-51
2021/08/16 14:42:41;;;;;;;;;;;;;;;;;;5081033;28;1527;-52
2021/08/16 14:45:06;;;;;;;;;;;;;;;;;;5084192;28;1209;-52
2021/08/16 14:47:31;;;;;;;;;;;;;;;;;;5081088;28;1128;-52
2021/08/16 14:49:56;;;;;;;;;;;;;;;;;;5079867;28;1171;-52
2021/08/16 14:52:22;;;;;;;;;;;;;;;;;;5078644;28;1543;-51
2021/08/16 14:54:47;;;;;;;;;;;;;;;;;;5082029;28;1909;-52
2021/08/16 14:57:12;;;;;;;;;;;;;;;;;;5082597;28;1553;-52
2021/08/16 14:59:37;;;;;;;;;;;;;;;;;;5083104;28;1359;-52
2021/08/16 15:02:03;;;;;;;;;;;;;;;;;;5090374;22;1624;-87
2021/08/16 15:04:28;;;;;;;;;;;;;;;;;;5077318;28;1295;-86
2021/08/16 15:06:54;;;;;;;;;;;;;;;;;;5093534;28;1744;-86
2021/08/16 15:09:19;;;;;;;;;;;;;;;;;;5078789;28;1251;-86
2021/08/16 15:11:45;;;;;;;;;;;;;;;;;;5097385;28;1385;-87
2021/08/16 15:14:10;;;;;;;;;;;;;;;;;;5095864;28;1887;-87
2021/08/16 15:16:35;;;;;;;;;;;;;;;;;;5092810;28;1188;-87
2021/08/16 15:19:00;;;;;;;;;;;;;;;;;;5092645;28;1318;-87
2021/08/16 15:21:25;;;;;;;;;;;;;;;;;;5094863;28;1533;-87
2021/08/16 15:23:51;;;;;;;;;;;;;;;;;;5093316;28;1588;-87
2021/08/16 15:26:16;;;;;;;;;;;;;;;;;;5090710;28;1175;-87
2021/08/16 15:28:42;;;;;;;;;;;;;;;;;;5091537;28;1564;-88
2021/08/16 15:31:08;;;;;;;;;;;;;;;;;;5069010;28;1781;-87
2021/08/16 15:33:33;;;;;;;;;;;;;;;;;;5091442;28;1445;-87
2021/08/16 15:35:58;;;;;;;;;;;;;;;;;;5070448;28;1968;-86
2021/08/16 15:38:23;;;;;;;;;;;;;;;;;;5090752;28;1509;-86
2021/08/16 15:40:49;;;;;;;;;;;;;;;;;;5096042;28;1231;-86
2021/08/16 15:43:14;;;;;;;;;;;;;;;;;;5090624;28;1628;-86
2021/08/16 15:45:39;;;;;;;;;;;;;;;;;;5093190;28;1587;-86
2021/08/16 15:48:11;;;;;;;;;;;;;;;;;;5093508;28;1092;-85
2021/08/16 15:50:40;;;;;;;;;;;;;;;;;;5094737;28;1358;-86
2021/08/16 15:53:05;;;;;;;;;;;;;;;;;;5092996;28;1528;-86
2021/08/16 15:55:30;;;;;;;;;;;;;;;;;;5094084;28;2062;-86
2021/08/16 15:57:55;;;;;;;;;;;;;;;;;;5092417;28;2015;-87
2021/08/16 16:00:20;;;;;;;;;;;;;;;;;;5096014;28;1276;-87
2021/08/16 16:02:46;;;;;;;;;;;;;;;;;;5093344;28;1196;-86
2021/08/16 16:05:11;;;;;;;;;;;;;;;;;;5091918;28;1700;-88
2021/08/16 16:07:36;;;;;;;;;;;;;;;;;;5096261;28;1648;-87
2021/08/16 16:10:02;;;;;;;;;;;;;;;;;;5094901;28;1176;-87
2021/08/16 16:12:28;;;;;;;;;;;;;;;;;;5094415;28;1506;-86
2021/08/16 16:14:53;;;;;;;;;;;;;;;;;;5095591;28;1969;-87
2021/08/16 16:17:18;;;;;;;;;;;;;;;;;;5093965;28;1243;-87
2021/08/16 16:19:43;;;;;;;;;;;;;;;;;;5093214;28;1556;-87
2021/08/16 16:22:09;;;;;;;;;;;;;;;;;;5093375;28;1612;-87
2021/08/16 16:24:34;;;;;;;;;;;;;;;;;;5075017;28;1283;-87
2021/08/16 16:26:59;;;;;;;;;;;;;;;;;;5072569;28;1306;-87
2021/08/16 16:29:24;;;;;;;;;;;;;;;;;;5092214;28;1469;-88
2021/08/16 16:31:51;;;;;;;;;;;;;;;;;;5093971;28;1286;-88
2021/08/16 16:34:16;;;;;;;;;;;;;;;;;;5094473;28;1902;-88
2021/08/16 16:36:42;;;;;;;;;;;;;;;;;;5096341;28;1643;-88
2021/08/16 16:39:07;;;;;;;;;;;;;;;;;;5077165;28;1315;-89
2021/08/16 16:41:32;;;;;;;;;;;;;;;;;;5093747;28;1284;-88
2021/08/16 16:43:58;;;;;;;;;;;;;;;;;;5094335;28;1569;-88
2021/08/16 16:46:23;;;;;;;;;;;;;;;;;;5098976;28;1136;-87
2021/08/16 16:48:48;;;;;;;;;;;;;;;;;;5094432;28;1549;-88
2021/08/16 16:51:18;;;;;;;;;;;;;;;;;;5099495;28;1239;-88
2021/08/16 16:53:44;;;;;;;;;;;;;;;;;;5104011;28;1500;-89